createdAt,value
2022-11-24T00:01:11.459Z,93505.91
2022-11-24T00:03:37.974Z,93502.63
2022-11-24T00:06:07.361Z,93506.94
2022-11-24T00:08:38.200Z,93506.66
2022-11-24T00:11:10.272Z,93506.38
2022-11-24T00:13:39.153Z,93508.41
2022-11-24T00:16:11.247Z,93507.06
2022-11-24T00:18:39.220Z,93514.28
2022-11-24T00:21:06.284Z,93500.34
2022-11-24T00:23:33.351Z,93515.31
2022-11-24T00:26:13.874Z,93509.66
2022-11-24T00:28:42.067Z,93516.91
2022-11-24T00:31:22.283Z,93521.63
2022-11-24T00:33:51.092Z,93527.34
2022-11-24T00:36:19.184Z,93526.88
2022-11-24T00:38:45.933Z,93530.00
2022-11-24T00:41:13.085Z,93531.56
2022-11-24T00:43:39.667Z,93525.41
2022-11-24T00:46:06.335Z,93534.22
2022-11-24T00:48:32.882Z,93533.25
2022-11-24T00:51:05.005Z,93537.16
2022-11-24T00:53:31.928Z,93538.00
2022-11-24T00:55:58.397Z,93541.84
2022-11-24T00:58:25.176Z,93545.78
2022-11-24T01:00:52.378Z,93549.88
2022-11-24T01:03:20.677Z,93541.84
2022-11-24T01:05:47.374Z,93544.63
2022-11-24T01:08:15.115Z,93557.78
2022-11-24T01:10:41.506Z,93555.69
2022-11-24T01:13:07.937Z,93556.47
2022-11-24T01:15:35.973Z,93561.63
2022-11-24T01:18:02.941Z,93573.53
2022-11-24T01:20:29.641Z,93558.00
2022-11-24T01:22:56.077Z,93572.19
2022-11-24T01:25:22.632Z,93581.78
2022-11-24T01:27:49.044Z,93584.84
2022-11-24T01:30:15.518Z,93583.53
2022-11-24T01:32:41.907Z,93583.25
2022-11-24T01:35:09.094Z,93592.56
2022-11-24T01:37:35.463Z,93596.97
2022-11-24T01:40:01.940Z,93597.75
2022-11-24T01:42:40.134Z,93602.91
2022-11-24T01:45:28.505Z,93608.28
2022-11-24T01:47:55.759Z,93617.59
2022-11-24T01:50:22.821Z,93611.94
2022-11-24T01:52:53.716Z,93617.53
2022-11-24T01:55:30.799Z,93611.88
2022-11-24T01:58:02.827Z,93621.31
2022-11-24T02:00:29.280Z,93633.97
2022-11-24T02:02:58.234Z,93628.03
2022-11-24T02:05:37.758Z,93637.34
2022-11-24T02:08:07.869Z,93629.84
2022-11-24T02:10:34.983Z,93633.69
2022-11-24T02:13:01.625Z,93640.41
2022-11-24T02:15:28.706Z,93642.53
2022-11-24T02:17:55.376Z,93643.84
2022-11-24T02:20:21.880Z,93641.53
2022-11-24T02:22:54.352Z,93649.59
2022-11-24T02:25:45.739Z,93654.00
2022-11-24T02:28:16.180Z,93655.59
2022-11-24T02:30:42.768Z,93665.25
2022-11-24T02:33:11.781Z,93663.16
2022-11-24T02:35:38.491Z,93672.75
2022-11-24T02:38:05.061Z,93676.38
2022-11-24T02:40:31.601Z,93676.91
2022-11-24T02:43:05.483Z,93670.78
2022-11-24T02:45:31.980Z,93674.94
2022-11-24T02:47:58.634Z,93674.41
2022-11-24T02:50:25.517Z,93675.44
2022-11-24T02:52:52.036Z,93670.78
2022-11-24T02:55:18.541Z,93680.84
2022-11-24T02:57:44.936Z,93685.75
2022-11-24T03:00:11.993Z,93675.94
2022-11-24T03:02:38.736Z,93679.03
2022-11-24T03:05:06.419Z,93688.59
2022-11-24T03:07:33.062Z,93685.53
2022-11-24T03:09:59.570Z,93688.38
2022-11-24T03:12:26.131Z,93692.28
2022-11-24T03:14:52.597Z,93697.06
2022-11-24T03:17:18.983Z,93693.53
2022-11-24T03:19:45.531Z,93701.13
2022-11-24T03:22:13.198Z,93696.78
2022-11-24T03:24:39.631Z,93701.78
2022-11-24T03:27:06.111Z,93697.22
2022-11-24T03:29:32.528Z,93695.22
2022-11-24T03:31:58.994Z,93701.00
2022-11-24T03:34:25.422Z,93705.22
2022-11-24T03:36:51.865Z,93693.66
2022-11-24T03:39:18.272Z,93716.69
2022-11-24T03:41:44.672Z,93711.56
2022-11-24T03:44:11.066Z,93712.09
2022-11-24T03:46:37.567Z,93721.66
2022-11-24T03:49:04.014Z,93713.94
2022-11-24T03:51:30.393Z,93725.09
2022-11-24T03:53:56.813Z,93719.69
2022-11-24T03:56:23.219Z,93726.94
2022-11-24T03:58:49.995Z,93733.94
2022-11-24T04:01:16.447Z,93738.63
2022-11-24T04:03:42.902Z,93734.22
2022-11-24T04:06:09.460Z,93740.47
2022-11-24T04:08:35.857Z,93744.34
2022-11-24T04:11:02.401Z,93739.44
2022-11-24T04:13:28.826Z,93751.56
2022-11-24T04:15:55.251Z,93745.91
2022-11-24T04:18:22.475Z,93756.25
2022-11-24T04:20:50.579Z,93751.84
2022-11-24T04:23:17.542Z,93753.16
2022-11-24T04:25:43.967Z,93761.41
2022-11-24T04:28:11.516Z,93770.19
2022-11-24T04:30:38.577Z,93781.56
2022-11-24T04:33:04.983Z,93781.06
2022-11-24T04:35:31.363Z,93780.06
2022-11-24T04:38:01.536Z,93792.97
2022-11-24T04:40:27.937Z,93785.22
2022-11-24T04:42:55.356Z,93784.72
2022-11-24T04:45:22.485Z,93789.34
2022-11-24T04:47:48.955Z,93789.34
2022-11-24T04:50:15.911Z,93795.09
2022-11-24T04:52:43.287Z,93790.41
2022-11-24T04:55:10.059Z,93792.50
2022-11-24T04:57:36.455Z,93797.91
2022-11-24T05:00:04.034Z,93792.75
2022-11-24T05:02:30.446Z,93801.00
2022-11-24T05:04:56.884Z,93803.34
2022-11-24T05:07:23.371Z,93798.16
2022-11-24T05:10:08.381Z,93814.16
2022-11-24T05:12:34.817Z,93812.59
2022-11-24T05:15:03.851Z,93816.50
2022-11-24T05:17:32.580Z,93821.66
2022-11-24T05:19:59.107Z,93828.63
2022-11-24T05:22:26.891Z,93817.53
2022-11-24T05:24:53.384Z,93816.75
2022-11-24T05:27:19.765Z,93807.44
2022-11-24T05:29:46.142Z,93818.03
2022-11-24T05:32:12.527Z,93817.28
2022-11-24T05:34:38.999Z,93820.38
2022-11-24T05:37:05.563Z,93824.53
2022-11-24T05:39:33.929Z,93824.03
2022-11-24T05:42:22.088Z,93831.78
2022-11-24T05:44:48.668Z,93825.59
2022-11-24T05:47:15.151Z,93824.59
2022-11-24T05:49:41.630Z,93825.13
2022-11-24T05:52:08.209Z,93832.09
2022-11-24T05:54:34.837Z,93828.50
2022-11-24T05:57:01.472Z,93817.69
2022-11-24T05:59:27.902Z,93830.59
2022-11-24T06:01:54.373Z,93830.06
2022-11-24T06:04:20.883Z,93832.91
2022-11-24T06:06:47.436Z,93825.44
2022-11-24T06:09:13.855Z,93825.44
2022-11-24T06:11:40.273Z,93833.69
2022-11-24T06:14:10.883Z,93829.84
2022-11-24T06:16:37.852Z,93846.06
2022-11-24T06:19:04.321Z,93839.63
2022-11-24T06:21:31.765Z,93837.56
2022-11-24T06:23:58.537Z,93853.53
2022-11-24T06:26:25.047Z,93847.88
2022-11-24T06:28:51.503Z,93848.38
2022-11-24T06:31:18.026Z,93842.19
2022-11-24T06:33:44.768Z,93854.31
2022-11-24T06:36:14.016Z,93852.75
2022-11-24T06:38:40.713Z,93861.25
2022-11-24T06:41:13.056Z,93863.31
2022-11-24T06:43:39.825Z,93845.78
2022-11-24T06:46:06.405Z,93855.53
2022-11-24T06:48:33.355Z,93863.81
2022-11-24T06:51:01.518Z,93857.59
2022-11-24T06:53:32.937Z,93861.22
2022-11-24T06:56:00.565Z,93866.63
2022-11-24T06:58:27.160Z,93864.78
2022-11-24T07:00:53.975Z,93865.06
2022-11-24T07:03:20.517Z,93865.81
2022-11-24T07:05:46.999Z,93862.94
2022-11-24T07:08:17.775Z,93865.22
2022-11-24T07:10:45.454Z,93861.88
2022-11-24T07:13:11.923Z,93865.69
2022-11-24T07:15:38.447Z,93866.19
2022-11-24T07:18:04.952Z,93870.84
2022-11-24T07:20:31.524Z,93873.38
2022-11-24T07:22:58.458Z,93871.84
2022-11-24T07:25:28.409Z,93890.66
2022-11-24T07:27:59.413Z,93884.69
2022-11-24T07:30:29.017Z,93888.00
2022-11-24T07:32:59.827Z,93889.06
2022-11-24T07:35:26.372Z,93897.81
2022-11-24T07:37:57.110Z,93895.72
2022-11-24T07:40:25.939Z,93901.16
2022-11-24T07:42:52.776Z,93894.94
2022-11-24T07:45:20.036Z,93888.19
2022-11-24T07:47:46.493Z,93896.47
2022-11-24T07:50:13.539Z,93886.63
2022-11-24T07:52:40.119Z,93891.25
2022-11-24T07:55:07.800Z,93876.25
2022-11-24T07:57:34.616Z,93880.84
2022-11-24T08:00:01.093Z,93887.53
2022-11-24T08:02:27.580Z,93886.22
2022-11-24T08:04:54.051Z,93891.38
2022-11-24T08:07:20.682Z,93889.56
2022-11-24T08:09:47.250Z,93901.72
2022-11-24T08:12:13.685Z,93899.41
2022-11-24T08:14:40.087Z,93893.47
2022-11-24T08:17:06.501Z,93902.25
2022-11-24T08:19:33.065Z,93908.75
2022-11-24T08:21:59.461Z,93903.06
2022-11-24T08:24:27.121Z,93908.75
2022-11-24T08:26:53.525Z,93905.66
2022-11-24T08:29:19.927Z,93905.66
2022-11-24T08:31:46.418Z,93912.38
2022-11-24T08:34:13.016Z,93916.00
2022-11-24T08:36:39.759Z,93920.91
2022-11-24T08:39:06.249Z,93923.25
2022-11-24T08:41:33.174Z,93921.41
2022-11-24T08:43:59.630Z,93931.00
2022-11-24T08:46:26.275Z,93930.22
2022-11-24T08:48:54.538Z,93937.97
2022-11-24T08:51:23.915Z,93934.63
2022-11-24T08:53:54.967Z,93939.78
2022-11-24T08:56:21.398Z,93942.38
2022-11-24T08:58:47.904Z,93942.09
2022-11-24T09:01:16.839Z,93945.47
2022-11-24T09:03:50.024Z,93935.38
2022-11-24T09:06:23.673Z,93944.19
2022-11-24T09:08:51.827Z,93940.06
2022-11-24T09:11:18.441Z,93942.38
2022-11-24T09:13:44.949Z,93936.91
2022-11-24T09:16:18.156Z,93938.75
2022-11-24T09:18:45.304Z,93939.78
2022-11-24T09:21:17.516Z,93940.56
2022-11-24T09:23:46.022Z,93936.91
2022-11-24T09:26:14.942Z,93941.84
2022-11-24T09:28:42.078Z,93941.31
2022-11-24T09:31:11.997Z,93940.25
2022-11-24T09:33:39.304Z,93952.09
2022-11-24T09:36:06.255Z,93952.59
2022-11-24T09:38:33.018Z,93951.09
2022-11-24T09:41:14.732Z,93957.53
2022-11-24T09:43:47.767Z,93963.97
2022-11-24T09:46:24.180Z,93971.19
2022-11-24T09:48:54.900Z,93969.13
2022-11-24T09:51:25.817Z,93975.06
2022-11-24T09:54:00.931Z,93979.97
2022-11-24T09:56:28.967Z,93985.91
2022-11-24T09:59:07.108Z,93983.81
2022-11-24T10:01:37.096Z,93988.25
2022-11-24T10:04:06.741Z,93979.47
2022-11-24T10:06:41.568Z,93981.50
2022-11-24T10:09:31.165Z,93984.88
2022-11-24T10:12:06.581Z,93993.91
2022-11-24T10:14:32.961Z,94000.13
2022-11-24T10:17:11.830Z,93992.59
2022-11-24T10:20:02.774Z,93995.16
2022-11-24T10:23:00.717Z,94003.69
2022-11-24T10:25:42.051Z,94000.06
2022-11-24T10:28:14.920Z,93998.53
2022-11-24T10:30:42.113Z,94002.88
2022-11-24T10:33:18.399Z,94004.16
2022-11-24T10:35:50.281Z,94005.47
2022-11-24T10:38:37.397Z,93997.69
2022-11-24T10:41:11.533Z,94009.56
2022-11-24T10:43:41.245Z,94015.53
2022-11-24T10:46:16.183Z,94010.63
2022-11-24T10:48:52.253Z,94007.53
2022-11-24T10:51:51.715Z,94019.69
2022-11-24T10:54:23.459Z,94026.91
2022-11-24T10:56:52.229Z,94009.34
2022-11-24T10:59:24.727Z,94010.88
2022-11-24T11:01:52.625Z,94008.78
2022-11-24T11:04:21.892Z,94010.09
2022-11-24T11:06:48.301Z,94019.69
2022-11-24T11:09:14.676Z,94023.88
2022-11-24T11:11:42.839Z,94023.91
2022-11-24T11:14:13.012Z,94012.28
2022-11-24T11:16:43.587Z,94013.03
2022-11-24T11:19:58.630Z,94002.47
2022-11-24T11:22:30.006Z,94005.84
2022-11-24T11:25:23.212Z,94010.78
2022-11-24T11:27:49.816Z,94014.69
2022-11-24T11:36:11.528Z,94012.84
2022-11-24T11:38:40.324Z,94026.25
2022-11-24T11:41:17.679Z,94027.53
2022-11-24T11:43:45.826Z,94032.16
2022-11-24T11:46:16.284Z,94029.03
2022-11-24T11:48:46.770Z,94022.03
2022-11-24T11:51:31.967Z,94022.75
2022-11-24T11:54:09.310Z,94023.50
2022-11-24T11:56:49.479Z,94029.09
2022-11-24T11:59:49.292Z,94015.53
2022-11-24T12:02:38.283Z,94021.31
2022-11-24T12:05:24.640Z,94021.03
2022-11-24T12:08:11.684Z,94026.63
2022-11-24T12:11:05.280Z,94025.78
2022-11-24T12:13:59.435Z,94025.53
2022-11-24T12:16:35.049Z,94023.00
2022-11-24T12:19:19.983Z,94036.97
2022-11-24T12:22:06.766Z,94039.03
2022-11-24T12:25:16.970Z,94037.78
2022-11-24T12:28:19.644Z,94042.78
2022-11-24T12:31:04.725Z,94042.31
2022-11-24T12:33:49.103Z,94037.94
2022-11-24T12:36:48.360Z,94035.66
2022-11-24T12:39:42.744Z,94043.97
2022-11-24T12:42:18.131Z,94046.44
2022-11-24T12:45:01.055Z,94051.59
2022-11-24T12:47:49.754Z,94045.53
2022-11-24T12:50:19.721Z,94051.00
2022-11-24T12:52:52.880Z,94044.69
2022-11-24T12:55:23.171Z,94043.69
2022-11-24T12:58:09.309Z,94042.59
2022-11-24T13:00:59.246Z,94053.00
2022-11-24T13:03:51.092Z,94055.13
2022-11-24T13:06:23.135Z,94055.00
2022-11-24T13:08:50.107Z,94055.56
2022-11-24T13:11:22.557Z,94053.69
2022-11-24T13:14:07.031Z,94048.72
2022-11-24T13:16:37.064Z,94057.31
2022-11-24T13:19:12.534Z,94051.28
2022-11-24T13:21:42.761Z,94050.44
2022-11-24T13:24:19.349Z,94061.75
2022-11-24T13:26:49.041Z,94065.59
2022-11-24T13:29:30.535Z,94068.56
2022-11-24T13:32:02.737Z,94080.13
2022-11-24T13:34:42.616Z,94070.69
2022-11-24T13:37:34.803Z,94079.97
2022-11-24T13:40:11.628Z,94073.34
2022-11-24T13:42:56.478Z,94080.03
2022-11-24T13:45:49.529Z,94078.72
2022-11-24T13:48:19.022Z,94078.22
2022-11-24T13:50:51.540Z,94085.53
2022-11-24T13:53:31.900Z,94079.88
2022-11-24T13:55:59.676Z,94085.56
2022-11-24T13:58:30.950Z,94088.16
2022-11-24T14:01:06.836Z,94089.97
2022-11-24T14:03:35.136Z,94098.34
2022-11-24T14:06:02.968Z,94097.88
2022-11-24T14:08:38.116Z,94106.47
2022-11-24T14:11:13.361Z,94103.88
2022-11-24T14:13:39.885Z,94107.25
2022-11-24T14:16:15.710Z,94105.16
2022-11-24T14:18:44.645Z,94108.75
2022-11-24T14:21:20.297Z,94105.47
2022-11-24T14:23:50.971Z,94093.00
2022-11-24T14:26:20.986Z,94099.47
2022-11-24T14:28:48.484Z,94099.81
2022-11-24T14:31:21.915Z,94101.88
2022-11-24T14:33:48.843Z,94097.22
2022-11-24T14:36:17.114Z,94098.84
2022-11-24T14:38:43.950Z,94107.66
2022-11-24T14:41:26.217Z,94114.44
2022-11-24T14:44:30.830Z,94122.25
2022-11-24T14:47:06.032Z,94108.31
2022-11-24T14:49:37.283Z,94113.50
2022-11-24T14:52:08.506Z,94111.44
2022-11-24T14:54:44.751Z,94106.31
2022-11-24T14:57:26.784Z,94111.00
2022-11-24T15:00:12.213Z,94120.84
2022-11-24T15:02:46.135Z,94122.94
2022-11-24T15:05:12.876Z,94121.91
2022-11-24T15:07:41.157Z,94121.63
2022-11-24T15:10:33.635Z,94123.94
2022-11-24T15:13:03.160Z,94124.16
2022-11-24T15:15:33.542Z,94126.22
2022-11-24T15:18:01.905Z,94129.59
2022-11-24T15:20:32.127Z,94129.59
2022-11-24T15:23:19.604Z,94136.34
2022-11-24T15:25:46.262Z,94128.63
2022-11-24T15:28:12.672Z,94146.28
2022-11-24T15:30:39.092Z,94134.91
2022-11-24T15:33:14.875Z,94140.38
2022-11-24T15:35:41.987Z,94142.75
2022-11-24T15:38:08.558Z,94140.69
2022-11-24T15:40:36.976Z,94140.22
2022-11-24T15:43:18.680Z,94153.19
2022-11-24T15:45:45.231Z,94154.25
2022-11-24T15:48:17.511Z,94151.69
2022-11-24T15:50:45.688Z,94161.00
2022-11-24T15:53:28.562Z,94160.50
2022-11-24T15:55:56.997Z,94164.09
2022-11-24T15:58:23.677Z,94166.69
2022-11-24T16:00:50.996Z,94163.34
2022-11-24T16:03:45.712Z,94171.84
2022-11-24T16:06:03.894Z,94179.13
2022-11-24T16:08:30.381Z,94175.50
2022-11-24T16:10:56.829Z,94165.94
2022-11-24T16:13:23.240Z,94184.28
2022-11-24T16:15:49.899Z,94179.91
2022-11-24T16:18:16.422Z,94175.50
2022-11-24T16:20:42.865Z,94180.69
2022-11-24T16:23:09.304Z,94185.84
2022-11-24T16:25:35.738Z,94179.13
2022-11-24T16:28:02.388Z,94180.69
2022-11-24T16:30:28.863Z,94183.25
2022-11-24T16:32:55.317Z,94186.88
2022-11-24T16:35:21.788Z,94184.78
2022-11-24T16:37:48.905Z,94180.69
2022-11-24T16:40:15.410Z,94177.03
2022-11-24T16:42:41.953Z,94177.03
2022-11-24T16:45:12.196Z,94182.75
2022-11-24T16:47:40.515Z,94177.81
2022-11-24T16:50:08.675Z,94172.91
2022-11-24T16:52:35.107Z,94182.75
2022-11-24T16:55:01.821Z,94179.66
2022-11-24T16:57:28.234Z,94173.19
2022-11-24T16:59:54.653Z,94173.47
2022-11-24T17:02:21.175Z,94178.13
2022-11-24T17:04:47.695Z,94179.41
2022-11-24T17:07:15.370Z,94175.56
2022-11-24T17:09:41.887Z,94178.66
2022-11-24T17:12:08.305Z,94169.91
2022-11-24T17:14:35.722Z,94184.13
2022-11-24T17:17:03.092Z,94185.44
2022-11-24T17:19:31.759Z,94191.16
2022-11-24T17:21:58.307Z,94182.34
2022-11-24T17:24:24.784Z,94185.44
2022-11-24T17:26:51.426Z,94182.63
2022-11-24T17:29:18.950Z,94179.03
2022-11-24T17:31:45.478Z,94186.00
2022-11-24T17:34:12.392Z,94181.38
2022-11-24T17:36:44.642Z,94184.47
2022-11-24T17:39:11.395Z,94180.88
2022-11-24T17:41:38.136Z,94177.25
2022-11-24T17:44:04.595Z,94183.97
2022-11-24T17:46:31.203Z,94181.91
2022-11-24T17:48:57.703Z,94180.88
2022-11-24T17:51:26.444Z,94166.66
2022-11-24T17:53:54.359Z,94175.72
2022-11-24T17:56:23.614Z,94180.38
2022-11-24T17:58:54.864Z,94185.03
2022-11-24T18:01:21.898Z,94185.03
2022-11-24T18:03:53.225Z,94187.34
2022-11-24T18:06:20.474Z,94181.69
2022-11-24T18:08:47.637Z,94195.41
2022-11-24T18:11:30.199Z,94189.69
2022-11-24T18:14:01.171Z,94191.75
2022-11-24T18:16:30.169Z,94201.31
2022-11-24T18:19:14.873Z,94198.75
2022-11-24T18:21:43.572Z,94201.09
2022-11-24T18:24:11.295Z,94204.44
2022-11-24T18:26:39.163Z,94202.13
2022-11-24T18:29:05.676Z,94199.03
2022-11-24T18:31:34.208Z,94193.09
2022-11-24T18:34:01.798Z,94195.38
2022-11-24T18:36:30.619Z,94202.09
2022-11-24T18:39:03.674Z,94200.28
2022-11-24T18:41:30.084Z,94201.56
2022-11-24T18:43:56.512Z,94197.69
2022-11-24T18:46:22.955Z,94202.88
2022-11-24T18:48:51.874Z,94197.69
2022-11-24T18:51:18.611Z,94201.06
2022-11-24T18:53:46.340Z,94197.97
2022-11-24T18:56:17.330Z,94189.16
2022-11-24T18:58:44.371Z,94186.84
2022-11-24T19:01:10.858Z,94191.75
2022-11-24T19:03:43.591Z,94189.94
2022-11-24T19:06:18.988Z,94186.06
2022-11-24T19:08:45.982Z,94183.22
2022-11-24T19:11:29.976Z,94181.94
2022-11-24T19:13:56.796Z,94179.84
2022-11-24T19:16:24.159Z,94188.91
2022-11-24T19:18:54.083Z,94183.22
2022-11-24T19:21:22.126Z,94181.69
2022-11-24T19:23:49.252Z,94180.69
2022-11-24T19:26:15.734Z,94180.91
2022-11-24T19:28:42.234Z,94182.97
2022-11-24T19:31:11.826Z,94174.94
2022-11-24T19:33:39.087Z,94188.13
2022-11-24T19:36:15.679Z,94176.75
2022-11-24T19:38:43.298Z,94178.84
2022-11-24T19:41:12.336Z,94185.03
2022-11-24T19:43:39.456Z,94185.53
2022-11-24T19:46:07.272Z,94196.38
2022-11-24T19:48:36.340Z,94190.69
2022-11-24T19:51:05.930Z,94195.88
2022-11-24T19:53:32.913Z,94169.75
2022-11-24T19:56:10.893Z,94194.81
2022-11-24T19:58:38.082Z,94185.78
2022-11-24T20:01:12.804Z,94190.16
2022-11-24T20:03:40.607Z,94192.72
2022-11-24T20:06:08.625Z,94191.19
2022-11-24T20:08:36.924Z,94191.19
2022-11-24T20:11:15.588Z,94196.09
2022-11-24T20:13:44.427Z,94183.47
2022-11-24T20:16:13.706Z,94178.28
2022-11-24T20:18:46.396Z,94176.72
2022-11-24T20:21:20.767Z,94172.59
2022-11-24T20:23:54.632Z,94177.47
2022-11-24T20:26:23.017Z,94168.41
2022-11-24T20:28:51.049Z,94173.56
2022-11-24T20:31:21.251Z,94176.66
2022-11-24T20:33:48.075Z,94176.38
2022-11-24T20:36:16.899Z,94176.88
2022-11-24T20:38:44.472Z,94174.00
2022-11-24T20:41:16.686Z,94171.19
2022-11-24T20:43:44.151Z,94170.59
2022-11-24T20:46:17.127Z,94162.06
2022-11-24T20:48:43.984Z,94163.34
2022-11-24T20:51:17.269Z,94168.72
2022-11-24T20:53:44.442Z,94167.97
2022-11-24T20:56:14.236Z,94175.44
2022-11-24T20:58:40.786Z,94167.72
2022-11-24T21:01:08.556Z,94162.81
2022-11-24T21:03:41.404Z,94160.47
2022-11-24T21:06:10.811Z,94165.59
2022-11-24T21:08:38.831Z,94169.44
2022-11-24T21:11:06.665Z,94164.78
2022-11-24T21:13:34.753Z,94168.06
2022-11-24T21:16:11.988Z,94169.06
2022-11-24T21:18:38.607Z,94175.25
2022-11-24T21:21:05.160Z,94173.19
2022-11-24T21:23:31.612Z,94176.53
2022-11-24T21:26:05.372Z,94183.03
2022-11-24T21:28:33.196Z,94186.13
2022-11-24T21:31:07.508Z,94172.19
2022-11-24T21:33:34.153Z,94177.88
2022-11-24T21:36:02.590Z,94174.81
2022-11-24T21:38:29.400Z,94183.06
2022-11-24T21:41:07.156Z,94184.13
2022-11-24T21:43:34.263Z,94184.59
2022-11-24T21:46:08.752Z,94180.47
2022-11-24T21:48:36.632Z,94173.72
2022-11-24T21:51:05.870Z,94185.63
2022-11-24T21:53:36.402Z,94168.63
2022-11-24T21:56:14.480Z,94168.88
2022-11-24T21:58:49.347Z,94163.50
2022-11-24T22:01:18.576Z,94172.03
2022-11-24T22:03:45.889Z,94169.69
2022-11-24T22:06:13.147Z,94167.41
2022-11-24T22:08:39.896Z,94170.78
2022-11-24T22:11:18.610Z,94165.13
2022-11-24T22:13:45.806Z,94162.56
2022-11-24T22:16:14.851Z,94162.56
2022-11-24T22:18:42.498Z,94165.13
2022-11-24T22:21:12.530Z,94161.53
2022-11-24T22:23:39.085Z,94164.34
2022-11-24T22:26:16.909Z,94156.88
2022-11-24T22:28:44.530Z,94161.75
2022-11-24T22:31:22.497Z,94160.69
2022-11-24T22:33:50.180Z,94150.63
2022-11-24T22:36:18.133Z,94159.13
2022-11-24T22:38:44.668Z,94161.66
2022-11-24T22:41:16.653Z,94163.16
2022-11-24T22:43:44.437Z,94167.75
2022-11-24T22:46:12.393Z,94167.47
2022-11-24T22:48:39.809Z,94164.84
2022-11-24T22:51:11.937Z,94164.84
2022-11-24T22:53:38.970Z,94167.69
2022-11-24T22:56:09.409Z,94170.00
2022-11-24T22:58:36.227Z,94170.50
2022-11-24T23:01:11.133Z,94162.25
2022-11-24T23:03:38.358Z,94161.69
2022-11-24T23:06:08.407Z,94168.13
2022-11-24T23:08:36.009Z,94170.66
2022-11-24T23:11:04.963Z,94176.78
2022-11-24T23:13:31.695Z,94168.25
2022-11-24T23:16:07.140Z,94172.69
2022-11-24T23:18:34.410Z,94164.72
2022-11-24T23:21:10.475Z,94160.09
2022-11-24T23:23:37.056Z,94162.38
2022-11-24T23:26:05.270Z,94169.31
2022-11-24T23:28:32.123Z,94173.41
2022-11-24T23:31:27.341Z,94172.38
2022-11-24T23:33:58.104Z,94177.28
2022-11-24T23:36:25.343Z,94182.44
2022-11-24T23:38:52.183Z,94183.75
2022-11-24T23:41:24.349Z,94178.28
2022-11-24T23:43:52.252Z,94180.34
2022-11-24T23:46:21.179Z,94177.28
2022-11-24T23:48:48.876Z,94184.50
2022-11-24T23:51:17.606Z,94187.81
2022-11-24T23:53:44.461Z,94179.59
2022-11-24T23:56:16.012Z,94181.69
2022-11-24T23:58:42.999Z,94179.09
